createdAt,value
2022-08-11T00:00:03.445Z,1019.1
2022-08-11T00:01:03.438Z,1019.1
2022-08-11T00:02:03.428Z,1019.1
2022-08-11T00:03:03.493Z,1019.1
2022-08-11T00:04:03.434Z,1019.1
2022-08-11T00:05:03.422Z,1019.1
2022-08-11T00:06:03.442Z,1019.1
2022-08-11T00:07:03.436Z,1019.1
2022-08-11T00:08:03.430Z,1019.1
2022-08-11T00:09:03.431Z,1019.1
2022-08-11T00:10:03.444Z,1019
2022-08-11T00:11:03.433Z,1019
2022-08-11T00:13:03.680Z,1019
2022-08-11T00:14:03.431Z,1019
2022-08-11T00:15:03.436Z,1019.1
2022-08-11T00:16:03.450Z,1019.1
2022-08-11T00:17:03.437Z,1019.1
2022-08-11T00:18:03.435Z,1019.1
2022-08-11T00:19:03.442Z,1019
2022-08-11T00:21:03.435Z,1019
2022-08-11T00:22:06.087Z,1019
2022-08-11T00:23:03.437Z,1019
2022-08-11T00:24:03.445Z,1019.1
2022-08-11T00:25:03.443Z,1019
2022-08-11T00:26:03.439Z,1019
2022-08-11T00:27:03.439Z,1019
2022-08-11T00:28:03.441Z,1019
2022-08-11T00:29:03.456Z,1019.1
2022-08-11T00:30:03.448Z,1019
2022-08-11T00:31:04.257Z,1019.1
2022-08-11T00:32:03.456Z,1019.1
2022-08-11T00:34:03.458Z,1019.1
2022-08-11T00:35:51.692Z,1019.1
2022-08-11T00:36:03.448Z,1019.1
2022-08-11T00:37:03.452Z,1019.1
2022-08-11T00:38:03.483Z,1019.1
2022-08-11T00:39:03.450Z,1019.1
2022-08-11T00:40:03.502Z,1019.1
2022-08-11T00:41:03.446Z,1019.1
2022-08-11T00:42:03.446Z,1019.1
2022-08-11T00:43:03.449Z,1019
2022-08-11T00:44:03.459Z,1019.1
2022-08-11T00:45:03.449Z,1019.1
2022-08-11T00:46:03.451Z,1019.1
2022-08-11T00:47:03.447Z,1019
2022-08-11T00:48:03.456Z,1019
2022-08-11T00:49:03.467Z,1019.1
2022-08-11T00:50:03.455Z,1019.1
2022-08-11T00:51:03.453Z,1019.1
2022-08-11T00:52:05.562Z,1019.1
2022-08-11T00:53:03.455Z,1019.1
2022-08-11T00:55:03.455Z,1019.1
2022-08-11T00:56:03.462Z,1019.1
2022-08-11T00:57:03.459Z,1019.1
2022-08-11T00:58:03.471Z,1019.1
2022-08-11T00:59:03.463Z,1019
2022-08-11T01:01:03.586Z,1019.1
2022-08-11T01:02:03.463Z,1019.1
2022-08-11T01:03:03.464Z,1019.1
2022-08-11T01:04:03.466Z,1019.1
2022-08-11T01:05:03.464Z,1019.1
2022-08-11T01:06:03.462Z,1019.1
2022-08-11T01:07:03.472Z,1019.1
2022-08-11T01:08:03.709Z,1019.1
2022-08-11T01:09:03.471Z,1019.1
2022-08-11T01:10:07.158Z,1019.1
2022-08-11T01:11:03.474Z,1019.1
2022-08-11T01:12:03.465Z,1019
2022-08-11T01:13:03.461Z,1019.1
2022-08-11T01:14:03.467Z,1019
2022-08-11T01:15:03.465Z,1019.1
2022-08-11T01:17:03.467Z,1019.1
2022-08-11T01:18:03.476Z,1019.1
2022-08-11T01:19:03.468Z,1019.2
2022-08-11T01:20:44.537Z,1019.1
2022-08-11T01:21:03.472Z,1019.1
2022-08-11T01:22:03.469Z,1019.1
2022-08-11T01:23:03.476Z,1019.1
2022-08-11T01:24:03.479Z,1019.1
2022-08-11T01:25:03.470Z,1019.1
2022-08-11T01:27:03.478Z,1019.1
2022-08-11T01:28:03.482Z,1019.1
2022-08-11T01:29:03.480Z,1019.2
2022-08-11T01:30:03.491Z,1019.2
2022-08-11T01:31:03.473Z,1019.2
2022-08-11T01:32:03.481Z,1019.2
2022-08-11T01:33:03.486Z,1019.2
2022-08-11T01:35:03.480Z,1019.2
2022-08-11T01:36:03.484Z,1019.2
2022-08-11T01:37:03.542Z,1019.2
2022-08-11T01:38:03.477Z,1019.2
2022-08-11T01:40:03.486Z,1019.2
2022-08-11T01:41:03.478Z,1019.2
2022-08-11T01:42:03.479Z,1019.2
2022-08-11T01:43:03.482Z,1019.2
2022-08-11T01:44:03.482Z,1019.2
2022-08-11T01:46:03.492Z,1019.1
2022-08-11T01:48:03.483Z,1019.2
2022-08-11T01:50:05.127Z,1019.1
2022-08-11T01:50:09.477Z,1019.2
2022-08-11T01:51:03.500Z,1019.2
2022-08-11T01:52:03.480Z,1019.1
2022-08-11T01:53:03.481Z,1019.2
2022-08-11T01:54:03.491Z,1019.2
2022-08-11T01:55:03.488Z,1019.2
2022-08-11T01:56:03.490Z,1019.2
2022-08-11T01:57:03.483Z,1019.1
2022-08-11T01:58:03.495Z,1019.2
2022-08-11T01:59:03.500Z,1019.1
2022-08-11T02:00:03.487Z,1019.2
2022-08-11T02:01:03.549Z,1019.2
2022-08-11T02:02:03.492Z,1019.2
2022-08-11T02:03:03.487Z,1019.2
2022-08-11T02:04:03.510Z,1019.2
2022-08-11T02:05:03.503Z,1019.3
2022-08-11T02:06:03.500Z,1019.2
2022-08-11T02:07:03.491Z,1019.2
2022-08-11T02:09:03.497Z,1019.2
2022-08-11T02:10:03.515Z,1019.2
2022-08-11T02:11:04.853Z,1019.2
2022-08-11T02:12:03.507Z,1019.3
2022-08-11T02:14:03.494Z,1019.2
2022-08-11T02:15:04.997Z,1019.2
2022-08-11T02:16:03.518Z,1019.2
2022-08-11T02:17:03.503Z,1019.2
2022-08-11T02:18:03.491Z,1019.2
2022-08-11T02:19:03.512Z,1019.2
2022-08-11T02:20:03.515Z,1019.2
2022-08-11T02:21:03.514Z,1019.2
2022-08-11T02:22:03.510Z,1019.2
2022-08-11T02:23:03.516Z,1019.2
2022-08-11T02:24:05.387Z,1019.1
2022-08-11T02:25:03.512Z,1019.2
2022-08-11T02:26:03.505Z,1019.2
2022-08-11T02:27:03.510Z,1019.2
2022-08-11T02:28:03.540Z,1019.2
2022-08-11T02:29:03.520Z,1019.2
2022-08-11T02:30:03.516Z,1019.2
2022-08-11T02:31:03.512Z,1019.2
2022-08-11T02:32:24.343Z,1019.1
2022-08-11T02:33:03.512Z,1019.2
2022-08-11T02:34:03.511Z,1019.2
2022-08-11T02:35:03.509Z,1019.2
2022-08-11T02:36:03.515Z,1019.2
2022-08-11T02:37:03.597Z,1019.2
2022-08-11T02:38:03.503Z,1019.2
2022-08-11T02:39:03.513Z,1019.2
2022-08-11T02:40:03.532Z,1019.2
2022-08-11T02:41:03.522Z,1019.2
2022-08-11T02:42:03.511Z,1019.2
2022-08-11T02:43:03.510Z,1019.2
2022-08-11T02:44:03.521Z,1019.2
2022-08-11T02:45:03.515Z,1019.2
2022-08-11T02:46:03.521Z,1019.2
2022-08-11T02:47:03.511Z,1019.2
2022-08-11T02:48:03.513Z,1019.2
2022-08-11T02:50:07.403Z,1019.2
2022-08-11T02:51:03.542Z,1019.1
2022-08-11T02:52:03.515Z,1019.2
2022-08-11T02:53:03.521Z,1019.2
2022-08-11T02:54:03.515Z,1019.2
2022-08-11T02:55:03.531Z,1019.1
2022-08-11T02:56:03.524Z,1019.1
2022-08-11T02:57:03.521Z,1019.1
2022-08-11T02:58:03.517Z,1019.1
2022-08-11T02:59:03.524Z,1019.2
2022-08-11T03:00:03.520Z,1019.2
2022-08-11T03:01:03.518Z,1019.2
2022-08-11T03:02:05.255Z,1019.2
2022-08-11T03:03:03.520Z,1019.2
2022-08-11T03:04:03.539Z,1019.2
2022-08-11T03:05:03.767Z,1019.2
2022-08-11T03:06:03.528Z,1019.2
2022-08-11T03:07:03.589Z,1019.2
2022-08-11T03:08:03.519Z,1019.2
2022-08-11T03:09:03.539Z,1019.2
2022-08-11T03:10:03.525Z,1019.2
2022-08-11T03:13:03.527Z,1019.1
2022-08-11T03:14:03.526Z,1019.1
2022-08-11T03:15:03.550Z,1019.1
2022-08-11T03:16:03.528Z,1019.1
2022-08-11T03:17:03.536Z,1019.1
2022-08-11T03:18:03.531Z,1019.1
2022-08-11T03:19:03.537Z,1019.1
2022-08-11T03:20:03.541Z,1019.1
2022-08-11T03:21:03.540Z,1019.2
2022-08-11T03:22:06.534Z,1019.1
2022-08-11T03:23:03.536Z,1019.1
2022-08-11T03:24:03.531Z,1019.2
2022-08-11T03:25:03.533Z,1019.2
2022-08-11T03:26:03.535Z,1019.1
2022-08-11T03:27:03.531Z,1019.2
2022-08-11T03:28:03.540Z,1019.1
2022-08-11T03:29:03.541Z,1019.1
2022-08-11T03:32:03.536Z,1019.2
2022-08-11T03:33:03.529Z,1019.1
2022-08-11T03:34:06.998Z,1019.2
2022-08-11T03:35:03.541Z,1019.1
2022-08-11T03:36:03.540Z,1019.1
2022-08-11T03:38:03.533Z,1019.1
2022-08-11T03:39:03.546Z,1019.2
2022-08-11T03:40:03.680Z,1019.2
2022-08-11T03:41:03.540Z,1019.2
2022-08-11T03:42:06.721Z,1019.2
2022-08-11T03:43:03.549Z,1019.1
2022-08-11T03:44:03.541Z,1019.1
2022-08-11T03:45:03.548Z,1019.1
2022-08-11T03:47:03.540Z,1019.2
2022-08-11T03:48:03.549Z,1019.2
2022-08-11T03:49:03.549Z,1019.2
2022-08-11T03:50:03.550Z,1019.1
2022-08-11T03:51:03.554Z,1019.1
2022-08-11T03:52:03.544Z,1019.1
2022-08-11T03:53:03.544Z,1019.1
2022-08-11T03:54:03.543Z,1019.1
2022-08-11T03:55:03.551Z,1019.1
2022-08-11T03:56:03.561Z,1019.1
2022-08-11T03:57:03.549Z,1019.2
2022-08-11T03:58:03.540Z,1019.2
2022-08-11T03:59:03.546Z,1019.1
2022-08-11T04:00:03.554Z,1019.1
2022-08-11T04:01:03.557Z,1019.1
2022-08-11T04:02:03.606Z,1019.2
2022-08-11T04:04:03.544Z,1019.2
2022-08-11T04:06:03.549Z,1019.2
2022-08-11T04:07:03.553Z,1019.2
2022-08-11T04:08:03.549Z,1019.2
2022-08-11T04:09:03.554Z,1019.2
2022-08-11T04:11:03.556Z,1019.2
2022-08-11T04:12:03.553Z,1019.2
2022-08-11T04:13:03.560Z,1019.1
2022-08-11T04:14:03.581Z,1019.1
2022-08-11T04:15:03.559Z,1019.1
2022-08-11T04:16:10.993Z,1019.1
2022-08-11T04:17:03.560Z,1019.1
2022-08-11T04:18:03.559Z,1019.1
2022-08-11T04:19:03.552Z,1019.1
2022-08-11T04:20:03.570Z,1019.1
2022-08-11T04:21:03.557Z,1019.1
2022-08-11T04:22:03.557Z,1019.1
2022-08-11T04:23:03.629Z,1019.1
2022-08-11T04:24:35.439Z,1019.1
2022-08-11T04:25:03.557Z,1019.1
2022-08-11T04:26:03.562Z,1019.1
2022-08-11T04:27:05.048Z,1019.1
2022-08-11T04:28:03.559Z,1019.1
2022-08-11T04:29:03.566Z,1019.1
2022-08-11T04:30:05.615Z,1019.1
2022-08-11T04:31:03.572Z,1019.1
2022-08-11T04:32:03.556Z,1019
2022-08-11T04:33:03.562Z,1019
2022-08-11T04:34:03.611Z,1019.1
2022-08-11T04:35:03.563Z,1019
2022-08-11T04:36:03.567Z,1019
2022-08-11T04:37:03.626Z,1019
2022-08-11T04:38:03.576Z,1019.1
2022-08-11T04:39:03.600Z,1019
2022-08-11T04:40:03.567Z,1019
2022-08-11T04:41:03.567Z,1019
2022-08-11T04:42:03.580Z,1019
2022-08-11T04:43:03.569Z,1019.1
2022-08-11T04:44:06.670Z,1019.1
2022-08-11T04:45:03.570Z,1019.1
2022-08-11T04:46:03.577Z,1019.1
2022-08-11T04:48:04.895Z,1019.1
2022-08-11T04:49:03.585Z,1019.1
2022-08-11T04:50:03.577Z,1019.1
2022-08-11T04:51:16.625Z,1019.1
2022-08-11T04:52:03.575Z,1019.1
2022-08-11T04:53:03.571Z,1019.1
2022-08-11T04:54:03.577Z,1019.1
2022-08-11T04:55:03.581Z,1019.1
2022-08-11T04:56:03.584Z,1019.1
2022-08-11T04:57:03.578Z,1019.1
2022-08-11T04:59:03.576Z,1019.1
2022-08-11T05:00:03.605Z,1019.1
2022-08-11T05:02:03.681Z,1019.1
2022-08-11T05:03:03.592Z,1019.1
2022-08-11T05:04:03.578Z,1019.1
2022-08-11T05:05:03.664Z,1019.1
2022-08-11T05:06:03.580Z,1019.1
2022-08-11T05:07:03.590Z,1019.1
2022-08-11T05:08:03.601Z,1019.2
2022-08-11T05:09:03.588Z,1019.2
2022-08-11T05:10:03.591Z,1019.1
2022-08-11T05:11:03.593Z,1019.2
2022-08-11T05:12:03.585Z,1019.2
2022-08-11T05:13:03.582Z,1019.2
2022-08-11T05:14:03.591Z,1019.2
2022-08-11T05:15:03.599Z,1019.2
2022-08-11T05:16:03.602Z,1019.2
2022-08-11T05:17:03.594Z,1019.2
2022-08-11T05:19:03.590Z,1019.2
2022-08-11T05:20:03.600Z,1019.2
2022-08-11T05:21:05.142Z,1019.2
2022-08-11T05:22:03.583Z,1019.2
2022-08-11T05:23:03.596Z,1019.2
2022-08-11T05:24:03.582Z,1019.3
2022-08-11T05:25:03.609Z,1019.3
2022-08-11T05:26:44.460Z,1019.3
2022-08-11T05:27:03.598Z,1019.3
2022-08-11T05:28:03.602Z,1019.3
2022-08-11T05:29:08.292Z,1019.3
2022-08-11T05:30:03.618Z,1019.3
2022-08-11T05:31:03.589Z,1019.4
2022-08-11T05:32:03.593Z,1019.3
2022-08-11T05:33:03.595Z,1019.3
2022-08-11T05:34:03.600Z,1019.4
2022-08-11T05:35:03.592Z,1019.4
2022-08-11T05:36:03.609Z,1019.4
2022-08-11T05:37:25.122Z,1019.4
2022-08-11T05:38:03.594Z,1019.4
2022-08-11T05:40:03.709Z,1019.4
2022-08-11T05:41:03.611Z,1019.4
2022-08-11T05:42:03.602Z,1019.4
2022-08-11T05:43:03.601Z,1019.4
2022-08-11T05:44:21.144Z,1019.4
2022-08-11T05:45:03.600Z,1019.4
2022-08-11T05:46:07.165Z,1019.4
2022-08-11T05:49:03.610Z,1019.3
2022-08-11T05:50:03.610Z,1019.4
2022-08-11T05:51:03.611Z,1019.4
2022-08-11T05:52:05.681Z,1019.4
2022-08-11T05:53:03.605Z,1019.4
2022-08-11T05:54:03.628Z,1019.3
2022-08-11T05:55:05.360Z,1019.3
2022-08-11T05:56:04.019Z,1019.3
2022-08-11T05:57:03.610Z,1019.3
2022-08-11T05:58:03.610Z,1019.3
2022-08-11T05:59:03.610Z,1019.3
2022-08-11T06:00:03.611Z,1019.3
2022-08-11T06:01:03.612Z,1019.2
2022-08-11T06:02:03.659Z,1019.2
2022-08-11T06:03:03.607Z,1019.3
2022-08-11T06:04:03.616Z,1019.2
2022-08-11T06:05:03.619Z,1019.2
2022-08-11T06:06:03.613Z,1019.2
2022-08-11T06:07:03.611Z,1019.3
2022-08-11T06:09:03.620Z,1019.3
2022-08-11T06:10:03.618Z,1019.3
2022-08-11T06:11:03.615Z,1019.3
2022-08-11T06:12:03.632Z,1019.3
2022-08-11T06:13:03.616Z,1019.3
2022-08-11T06:14:03.618Z,1019.3
2022-08-11T06:15:03.625Z,1019.3
2022-08-11T06:16:06.818Z,1019.3
2022-08-11T06:17:03.625Z,1019.3
2022-08-11T06:18:03.628Z,1019.4
2022-08-11T06:19:03.618Z,1019.4
2022-08-11T06:20:05.538Z,1019.4
2022-08-11T06:21:03.623Z,1019.3
2022-08-11T06:22:03.619Z,1019.3
2022-08-11T06:23:03.631Z,1019.3
2022-08-11T06:24:03.623Z,1019.3
2022-08-11T06:25:03.627Z,1019.3
2022-08-11T06:26:03.632Z,1019.3
2022-08-11T06:27:19.125Z,1019.3
2022-08-11T06:28:03.633Z,1019.2
2022-08-11T06:29:03.625Z,1019.2
2022-08-11T06:30:03.624Z,1019.3
2022-08-11T06:31:03.625Z,1019.2
2022-08-11T06:32:03.646Z,1019.3
2022-08-11T06:33:03.647Z,1019.3
2022-08-11T06:34:03.662Z,1019.3
2022-08-11T06:35:03.663Z,1019.2
2022-08-11T06:36:03.632Z,1019.2
2022-08-11T06:37:03.633Z,1019.2
2022-08-11T06:38:03.657Z,1019.2
2022-08-11T06:40:03.650Z,1019.2
2022-08-11T06:41:03.639Z,1019.2
2022-08-11T06:42:03.633Z,1019.2
2022-08-11T06:43:03.645Z,1019.2
2022-08-11T06:44:05.425Z,1019.2
2022-08-11T06:45:03.642Z,1019.2
2022-08-11T06:46:03.648Z,1019.2
2022-08-11T06:47:03.647Z,1019.2
2022-08-11T06:48:03.634Z,1019.2
2022-08-11T06:49:03.649Z,1019.2
2022-08-11T06:50:03.640Z,1019.2
2022-08-11T06:51:03.642Z,1019.2
2022-08-11T06:52:04.555Z,1019.2
2022-08-11T06:53:03.649Z,1019.2
2022-08-11T06:54:05.664Z,1019.2
2022-08-11T06:55:03.657Z,1019.2
2022-08-11T06:56:03.647Z,1019.2
2022-08-11T06:58:03.654Z,1019.2
2022-08-11T06:59:03.653Z,1019.3
2022-08-11T07:01:03.752Z,1019.3
2022-08-11T07:02:03.657Z,1019.3
2022-08-11T07:03:03.652Z,1019.3
2022-08-11T07:04:03.654Z,1019.3
2022-08-11T07:05:03.647Z,1019.3
2022-08-11T07:06:03.663Z,1019.3
2022-08-11T07:07:03.672Z,1019.3
2022-08-11T07:08:34.623Z,1019.2
2022-08-11T07:09:03.659Z,1019.3
2022-08-11T07:10:03.658Z,1019.2
2022-08-11T07:12:03.661Z,1019.3
2022-08-11T07:13:03.661Z,1019.3
2022-08-11T07:14:03.757Z,1019.2
2022-08-11T07:15:03.659Z,1019.2
2022-08-11T07:16:11.422Z,1019.2
2022-08-11T07:17:03.671Z,1019.2
2022-08-11T07:18:03.657Z,1019.2
2022-08-11T07:19:03.657Z,1019.3
2022-08-11T07:20:03.673Z,1019.3
2022-08-11T07:21:03.668Z,1019.3
2022-08-11T07:22:04.119Z,1019.3
2022-08-11T07:23:03.674Z,1019.3
2022-08-11T07:24:03.668Z,1019.2
2022-08-11T07:25:03.864Z,1019.2
2022-08-11T07:26:03.669Z,1019.2
2022-08-11T07:27:03.663Z,1019.2
2022-08-11T07:28:03.667Z,1019.2
2022-08-11T07:29:03.672Z,1019.2
2022-08-11T07:30:03.670Z,1019.2
2022-08-11T07:31:03.672Z,1019.2
2022-08-11T07:32:03.671Z,1019.2
2022-08-11T07:33:03.675Z,1019.2
2022-08-11T07:34:07.587Z,1019.2
2022-08-11T07:36:03.688Z,1019.2
2022-08-11T07:37:03.750Z,1019.2
2022-08-11T07:38:07.073Z,1019.2
2022-08-11T07:39:03.682Z,1019.2
2022-08-11T07:40:03.690Z,1019.2
2022-08-11T07:41:03.677Z,1019.2
2022-08-11T07:42:03.677Z,1019.2
2022-08-11T07:43:03.697Z,1019.2
2022-08-11T07:44:03.670Z,1019.2
2022-08-11T07:45:03.692Z,1019.2
2022-08-11T07:46:03.685Z,1019.2
2022-08-11T07:47:03.679Z,1019.2
2022-08-11T07:48:03.681Z,1019.2
2022-08-11T07:49:03.674Z,1019.2
2022-08-11T07:51:03.680Z,1019.2
2022-08-11T07:52:03.684Z,1019.1
2022-08-11T07:53:03.675Z,1019.2
2022-08-11T07:54:15.342Z,1019.1
2022-08-11T07:55:03.686Z,1019.1
2022-08-11T07:56:03.694Z,1019.1
2022-08-11T07:57:08.966Z,1019.1
2022-08-11T07:58:19.232Z,1019.1
2022-08-11T07:59:08.204Z,1019.1
2022-08-11T08:00:05.096Z,1019.1
2022-08-11T08:01:03.789Z,1019.1
2022-08-11T08:02:03.764Z,1019.1
2022-08-11T08:03:03.695Z,1019.1
2022-08-11T08:04:03.684Z,1019
2022-08-11T08:05:03.693Z,1019.1
2022-08-11T08:06:03.687Z,1019.1
2022-08-11T08:07:03.699Z,1019
2022-08-11T08:08:03.700Z,1019.1
2022-08-11T08:09:03.693Z,1019.1
2022-08-11T08:10:03.695Z,1019.1
2022-08-11T08:12:03.689Z,1019.1
2022-08-11T08:13:03.733Z,1019.1
2022-08-11T08:14:03.690Z,1019.1
2022-08-11T08:15:03.695Z,1019
2022-08-11T08:16:03.700Z,1019.1
2022-08-11T08:17:03.703Z,1019.1
2022-08-11T08:18:09.669Z,1019.1
2022-08-11T08:20:03.700Z,1019.1
2022-08-11T08:21:03.725Z,1019.1
2022-08-11T08:22:11.970Z,1019.1
2022-08-11T08:23:03.730Z,1019.1
2022-08-11T08:24:03.737Z,1019.1
2022-08-11T08:25:03.704Z,1019.1
2022-08-11T08:26:03.699Z,1019.1
2022-08-11T08:27:03.714Z,1019.1
2022-08-11T08:28:03.697Z,1019.1
2022-08-11T08:29:03.703Z,1019.1
2022-08-11T08:30:03.715Z,1019.1
2022-08-11T08:31:03.717Z,1019
2022-08-11T08:33:03.701Z,1019.1
2022-08-11T08:34:03.703Z,1019.1
2022-08-11T08:35:03.719Z,1019.1
2022-08-11T08:36:03.702Z,1019.1
2022-08-11T08:37:16.021Z,1019.1
2022-08-11T08:38:03.733Z,1019.1
2022-08-11T08:39:03.710Z,1019.1
2022-08-11T08:40:03.733Z,1019.1
2022-08-11T08:43:03.710Z,1019.1
2022-08-11T08:44:34.747Z,1019.1
2022-08-11T08:45:03.715Z,1019.1
2022-08-11T08:46:03.709Z,1019.1
2022-08-11T08:47:03.715Z,1019
2022-08-11T08:48:03.713Z,1019.1
2022-08-11T08:49:03.713Z,1019.1
2022-08-11T08:50:03.727Z,1019.1
2022-08-11T08:51:03.720Z,1019.1
2022-08-11T08:52:26.318Z,1019
2022-08-11T08:53:03.729Z,1019
2022-08-11T08:54:03.711Z,1019.1
2022-08-11T08:55:03.728Z,1019.1
2022-08-11T08:56:03.721Z,1019.1
2022-08-11T08:57:03.722Z,1019.1
2022-08-11T08:58:03.721Z,1019
2022-08-11T08:59:03.767Z,1019.1
2022-08-11T09:00:03.755Z,1019
2022-08-11T09:01:03.773Z,1019.1
2022-08-11T09:02:03.734Z,1019.1
2022-08-11T09:03:22.805Z,1019.1
2022-08-11T09:04:11.226Z,1019
2022-08-11T09:05:03.859Z,1019.1
2022-08-11T09:06:03.735Z,1019.1
2022-08-11T09:08:03.732Z,1019.1
2022-08-11T09:09:03.729Z,1019
2022-08-11T09:10:03.746Z,1019
2022-08-11T09:11:03.729Z,1019
2022-08-11T09:12:03.735Z,1019
2022-08-11T09:13:03.734Z,1019
2022-08-11T09:14:05.482Z,1019
2022-08-11T09:15:03.744Z,1019
2022-08-11T09:16:03.732Z,1019
2022-08-11T09:17:03.731Z,1019
2022-08-11T09:18:03.839Z,1019
2022-08-11T09:19:03.749Z,1019
2022-08-11T09:20:03.731Z,1019
2022-08-11T09:21:03.733Z,1019
2022-08-11T09:24:12.839Z,1019
2022-08-11T09:26:03.746Z,1019
2022-08-11T09:27:03.736Z,1019
2022-08-11T09:28:03.733Z,1018.9
2022-08-11T09:29:03.742Z,1019
2022-08-11T09:30:03.742Z,1018.9
2022-08-11T09:31:03.746Z,1019
2022-08-11T09:32:03.745Z,1019
2022-08-11T09:33:03.759Z,1019
2022-08-11T09:34:03.739Z,1018.9
2022-08-11T09:35:03.748Z,1018.9
2022-08-11T09:36:03.807Z,1018.9
2022-08-11T09:38:03.824Z,1018.9
2022-08-11T09:39:03.745Z,1018.9
2022-08-11T09:40:03.742Z,1018.9
2022-08-11T09:41:03.750Z,1018.9
2022-08-11T09:42:04.338Z,1018.9
2022-08-11T09:43:03.749Z,1018.8
2022-08-11T09:44:04.472Z,1018.8
2022-08-11T09:45:03.754Z,1018.8
2022-08-11T09:47:03.778Z,1018.8
2022-08-11T09:48:03.762Z,1018.9
2022-08-11T09:49:03.751Z,1018.8
2022-08-11T09:50:03.765Z,1018.9
2022-08-11T09:51:03.759Z,1018.8
2022-08-11T09:53:35.222Z,1018.8
2022-08-11T09:54:04.180Z,1018.8
2022-08-11T09:55:03.759Z,1018.8
2022-08-11T09:56:03.756Z,1018.8
2022-08-11T09:57:05.481Z,1018.8
2022-08-11T09:58:03.760Z,1018.8
2022-08-11T09:59:03.760Z,1018.8
2022-08-11T10:00:12.195Z,1018.8
2022-08-11T10:01:03.918Z,1018.8
2022-08-11T10:02:03.796Z,1018.8
2022-08-11T10:03:03.759Z,1018.8
2022-08-11T10:04:03.770Z,1018.8
2022-08-11T10:05:03.765Z,1018.7
2022-08-11T10:06:07.881Z,1018.7
2022-08-11T10:07:04.634Z,1018.8
2022-08-11T10:08:03.765Z,1018.8
2022-08-11T10:09:03.774Z,1018.7
2022-08-11T10:10:03.771Z,1018.7
2022-08-11T10:11:03.789Z,1018.7
2022-08-11T10:12:03.769Z,1018.7
2022-08-11T10:13:03.764Z,1018.7
2022-08-11T10:15:03.783Z,1018.7
2022-08-11T10:16:15.363Z,1018.7
2022-08-11T10:17:03.774Z,1018.7
2022-08-11T10:18:03.775Z,1018.7
2022-08-11T10:19:04.151Z,1018.7
2022-08-11T10:20:05.435Z,1018.6
2022-08-11T10:22:03.795Z,1018.6
2022-08-11T10:23:03.781Z,1018.6
2022-08-11T10:24:06.029Z,1018.6
2022-08-11T10:25:03.793Z,1018.6
2022-08-11T10:26:03.787Z,1018.6
2022-08-11T10:27:03.771Z,1018.6
2022-08-11T10:28:28.132Z,1018.5
2022-08-11T10:29:12.927Z,1018.5
2022-08-11T10:30:03.779Z,1018.5
2022-08-11T10:31:03.776Z,1018.5
2022-08-11T10:32:04.332Z,1018.5
2022-08-11T10:33:03.788Z,1018.5
2022-08-11T10:34:03.896Z,1018.4
2022-08-11T10:35:03.781Z,1018.4
2022-08-11T10:36:03.779Z,1018.4
2022-08-11T10:37:03.784Z,1018.5
2022-08-11T10:38:15.742Z,1018.4
2022-08-11T10:40:03.789Z,1018.3
2022-08-11T10:41:03.787Z,1018.4
2022-08-11T10:42:07.785Z,1018.5
2022-08-11T10:43:03.785Z,1018.4
2022-08-11T10:44:04.239Z,1018.4
2022-08-11T10:45:03.792Z,1018.3
2022-08-11T10:47:03.796Z,1018.3
2022-08-11T10:48:03.791Z,1018.3
2022-08-11T10:49:03.806Z,1018.3
2022-08-11T10:50:05.161Z,1018.3
2022-08-11T10:51:03.793Z,1018.4
2022-08-11T10:52:03.858Z,1018.4
2022-08-11T10:53:03.800Z,1018.3
2022-08-11T10:54:03.797Z,1018.5
2022-08-11T10:55:03.795Z,1018.4
2022-08-11T10:57:03.801Z,1018.4
2022-08-11T10:58:05.175Z,1018.3
2022-08-11T11:00:03.808Z,1018.3
2022-08-11T11:01:03.896Z,1018.2
2022-08-11T11:02:03.805Z,1018.2
2022-08-11T11:04:03.820Z,1018.2
2022-08-11T11:05:03.803Z,1018.1
2022-08-11T11:06:27.722Z,1018.1
2022-08-11T11:07:03.798Z,1018.1
2022-08-11T11:08:03.803Z,1018.1
2022-08-11T11:09:04.998Z,1018.1
2022-08-11T11:11:03.807Z,1018.3
2022-08-11T11:12:03.807Z,1018.2
2022-08-11T11:13:03.805Z,1018.1
2022-08-11T11:14:03.811Z,1018.1
2022-08-11T11:15:03.845Z,1018.1
2022-08-11T11:16:03.813Z,1018.1
2022-08-11T11:17:03.808Z,1018.1
2022-08-11T11:18:03.808Z,1018.1
2022-08-11T11:19:03.818Z,1018.1
2022-08-11T11:20:03.824Z,1018.1
2022-08-11T11:22:03.809Z,1018
2022-08-11T11:23:03.810Z,1018
2022-08-11T11:24:03.821Z,1018.1
2022-08-11T11:25:03.822Z,1018
2022-08-11T11:26:03.821Z,1018
2022-08-11T11:27:03.806Z,1018
2022-08-11T11:28:03.811Z,1018
2022-08-11T11:29:03.820Z,1018
2022-08-11T11:30:03.840Z,1017.9
2022-08-11T11:31:03.812Z,1018
2022-08-11T11:32:03.820Z,1017.9
2022-08-11T11:33:03.814Z,1018
2022-08-11T11:34:12.397Z,1017.9
2022-08-11T11:37:03.823Z,1017.9
2022-08-11T11:38:05.684Z,1017.8
2022-08-11T11:39:03.821Z,1017.8
2022-08-11T11:40:03.830Z,1017.8
2022-08-11T11:41:03.822Z,1017.8
2022-08-11T11:43:03.838Z,1017.9
2022-08-11T11:44:03.826Z,1017.9
2022-08-11T11:45:03.831Z,1017.9
2022-08-11T11:46:03.826Z,1017.8
2022-08-11T11:47:03.828Z,1017.8
2022-08-11T11:48:03.833Z,1017.8
2022-08-11T11:49:03.913Z,1017.7
2022-08-11T11:50:03.827Z,1017.7
2022-08-11T11:51:03.831Z,1017.7
2022-08-11T11:52:03.896Z,1017.7
2022-08-11T11:53:03.836Z,1017.7
2022-08-11T11:54:03.846Z,1017.6
2022-08-11T11:55:03.832Z,1017.7
2022-08-11T11:56:03.829Z,1017.6
2022-08-11T11:58:03.826Z,1017.6
2022-08-11T11:59:03.840Z,1017.7
2022-08-11T12:00:03.838Z,1017.6
2022-08-11T12:01:03.832Z,1017.6
2022-08-11T12:02:11.634Z,1017.6
2022-08-11T12:04:03.831Z,1017.5
2022-08-11T12:05:04.227Z,1017.6
2022-08-11T12:06:03.847Z,1017.6
2022-08-11T12:07:03.897Z,1017.6
2022-08-11T12:08:12.945Z,1017.5
2022-08-11T12:10:03.840Z,1017.6
2022-08-11T12:11:03.864Z,1017.5
2022-08-11T12:12:03.837Z,1017.5
2022-08-11T12:13:03.837Z,1017.5
2022-08-11T12:14:04.685Z,1017.5
2022-08-11T12:15:03.843Z,1017.5
2022-08-11T12:16:33.465Z,1017.5
2022-08-11T12:17:03.848Z,1017.4
2022-08-11T12:18:03.844Z,1017.4
2022-08-11T12:19:03.868Z,1017.4
2022-08-11T12:20:03.841Z,1017.4
2022-08-11T12:21:03.851Z,1017.4
2022-08-11T12:22:03.849Z,1017.4
2022-08-11T12:23:03.852Z,1017.4
2022-08-11T12:25:03.854Z,1017.4
2022-08-11T12:26:25.936Z,1017.4
2022-08-11T12:27:16.185Z,1017.3
2022-08-11T12:28:03.850Z,1017.4
2022-08-11T12:29:03.850Z,1017.3
2022-08-11T12:30:03.865Z,1017.3
2022-08-11T12:31:03.861Z,1017.4
2022-08-11T12:32:03.864Z,1017.3
2022-08-11T12:33:03.857Z,1017.3
2022-08-11T12:34:03.872Z,1017.3
2022-08-11T12:35:03.856Z,1017.2
2022-08-11T12:36:03.857Z,1017.2
2022-08-11T12:37:03.872Z,1017.2
2022-08-11T12:38:09.532Z,1017.2
2022-08-11T12:39:06.115Z,1017.2
2022-08-11T12:40:16.095Z,1017.2
2022-08-11T12:41:16.841Z,1017.3
2022-08-11T12:42:03.984Z,1017.2
2022-08-11T12:43:08.268Z,1017.2
2022-08-11T12:44:03.880Z,1017.2
2022-08-11T12:46:03.861Z,1017.1
2022-08-11T12:47:03.863Z,1017.1
2022-08-11T12:48:13.986Z,1017.1
2022-08-11T12:49:04.097Z,1017.1
2022-08-11T12:50:03.871Z,1017.1
2022-08-11T12:51:03.862Z,1017
2022-08-11T12:53:03.868Z,1017
2022-08-11T12:54:03.865Z,1017
2022-08-11T12:55:03.893Z,1017
2022-08-11T12:57:03.869Z,1017
2022-08-11T12:58:03.873Z,1017
2022-08-11T12:59:03.875Z,1016.9
2022-08-11T13:00:03.873Z,1016.9
2022-08-11T13:01:03.935Z,1016.9
2022-08-11T13:02:03.869Z,1016.9
2022-08-11T13:03:03.873Z,1016.9
2022-08-11T13:04:03.878Z,1016.9
2022-08-11T13:05:03.880Z,1016.9
2022-08-11T13:06:03.885Z,1017
2022-08-11T13:07:03.880Z,1016.9
2022-08-11T13:08:03.874Z,1016.9
2022-08-11T13:09:03.879Z,1016.9
2022-08-11T13:10:03.955Z,1016.9
2022-08-11T13:11:03.895Z,1016.9
2022-08-11T13:12:03.890Z,1016.9
2022-08-11T13:13:03.881Z,1017
2022-08-11T13:14:03.895Z,1016.9
2022-08-11T13:15:03.898Z,1016.9
2022-08-11T13:18:03.884Z,1016.8
2022-08-11T13:19:03.879Z,1016.8
2022-08-11T13:20:03.882Z,1016.8
2022-08-11T13:21:03.895Z,1016.8
2022-08-11T13:22:03.895Z,1016.8
2022-08-11T13:23:03.892Z,1016.8
2022-08-11T13:24:03.946Z,1016.8
2022-08-11T13:25:03.889Z,1016.7
2022-08-11T13:26:03.920Z,1016.7
2022-08-11T13:27:03.906Z,1016.7
2022-08-11T13:28:03.897Z,1016.7
2022-08-11T13:29:03.898Z,1016.7
2022-08-11T13:30:03.903Z,1016.6
2022-08-11T13:31:03.895Z,1016.6
2022-08-11T13:32:03.975Z,1016.6
2022-08-11T13:33:03.897Z,1016.6
2022-08-11T13:35:03.905Z,1016.5
2022-08-11T13:36:03.902Z,1016.6
2022-08-11T13:37:03.952Z,1016.6
2022-08-11T13:40:03.917Z,1016.6
2022-08-11T13:41:03.905Z,1016.6
2022-08-11T13:42:03.923Z,1016.6
2022-08-11T13:43:03.903Z,1016.6
2022-08-11T13:44:03.898Z,1016.6
2022-08-11T13:45:03.902Z,1016.6
2022-08-11T13:46:03.904Z,1016.6